Sider Dream — 3FEW8 — position and weather

sailwx.info

Track history (hours):
 
Tides and Currents Weather Stations Pressure Air Temp Water Temp Dewpoint Dewpoint Depression Visibility Wind Speed Wind Dir Waves Ship Positions

Sider Dream

Last reported at 2018-May-19 22:28 UTC. Time now 2018-May-22 19:53 UTC.
Position N 38°57' E 003°22'.

Length 176 m; draft 5.8 m.

Type: Ship. MMSI: 356189000.

Date/timePositionNaut miles runAvg speedWind from/ knotsBaromVisibWave heightAir tempDewpointWater temp
2018-May-19 22:28N 38°57' E 003°22'613.4
2018-May-19 22:00N 38°58' E 003°14'813.6
2018-May-19 21:27N 38°59' E 003°04'713.5
2018-May-19 20:57N 39°01' E 002°56'713.4
2018-May-19 20:23N 39°04' E 002°47'513.5
2018-May-19 20:00N 39°06' E 002°41'713.6
2018-May-19 19:30N 39°08' E 002°32'1013.6
2018-May-19 18:48N 39°11' E 002°21'  
2018-May-15 13:56N 39°14' E 002°12'4 7.7
2018-May-15 13:28N 39°13' E 002°17'4 7.5
2018-May-15 12:57N 39°11' E 002°21'3 7.5
2018-May-15 12:30N 39°10' E 002°25'4 7.4
2018-May-15 12:00N 39°09' E 002°30'4 7.4
2018-May-15 11:30N 39°08' E 002°34'4 7.5
2018-May-15 11:00N 39°07' E 002°39'4 7.6
2018-May-15 10:29N 39°05' E 002°44'4 7.7
2018-May-15 09:55N 39°03' E 002°49'4 7.7
2018-May-15 09:22N 39°02' E 002°54'6 7.7
2018-May-15 08:36N 38°60' E 003°01'1 7.8
2018-May-15 08:30N 38°60' E 003°02'45210.9
2018-May-13 14:54N 37°24' E 012°24'512.0
2018-May-13 14:30N 37°21' E 012°29'1212.7
2018-May-13 13:35N 37°16' E 012°43'112.7
2018-May-13 13:29N 37°16' E 012°44'612.5
2018-May-13 12:59N 37°13' E 012°51'7712.2
2018-May-13 06:41N 36°43' E 014°19'211.8
2018-May-13 06:30N 36°43' E 014°22'611.6
2018-May-13 06:00N 36°41' E 014°29'611.2
2018-May-13 05:25N 36°39' E 014°37'511.0
2018-May-13 04:59N 36°37' E 014°42'611.7
2018-May-13 04:30N 36°36' E 014°49'612.2
2018-May-13 03:59N 36°34' E 014°57'612.4
2018-May-13 03:29N 36°32' E 015°04'612.1
2018-May-13 03:00N 36°32' E 015°11'612.1
2018-May-13 02:30N 36°32' E 015°19'612.0
2018-May-13 02:00N 36°32' E 015°26'612.2
2018-May-13 01:30N 36°31' E 015°34'612.2
2018-May-13 01:00N 36°31' E 015°42'612.2
2018-May-13 00:29N 36°31' E 015°49'  
Track history (hours):
 
Tides and Currents Weather Stations Pressure Air Temp Water Temp Dewpoint Dewpoint Depression Visibility Wind Speed Wind Dir Waves Ship Positions

Sider Dream

Last reported at 2018-May-19 22:28 UTC. Time now 2018-May-22 19:53 UTC.
Position N 38°57' E 003°22'.

Length 176 m; draft 5.8 m.

Type: Ship. MMSI: 356189000.

Date/timePositionNaut miles runAvg speedWind from/ knotsBaromVisibWave heightAir tempDewpointWater temp
2018-May-19 22:28N 38°57' E 003°22'613.4
2018-May-19 22:00N 38°58' E 003°14'813.6
2018-May-19 21:27N 38°59' E 003°04'713.5
2018-May-19 20:57N 39°01' E 002°56'713.4
2018-May-19 20:23N 39°04' E 002°47'513.5
2018-May-19 20:00N 39°06' E 002°41'713.6
2018-May-19 19:30N 39°08' E 002°32'1013.6
2018-May-19 18:48N 39°11' E 002°21'  
2018-May-15 13:56N 39°14' E 002°12'4 7.7
2018-May-15 13:28N 39°13' E 002°17'4 7.5
2018-May-15 12:57N 39°11' E 002°21'3 7.5
2018-May-15 12:30N 39°10' E 002°25'4 7.4
2018-May-15 12:00N 39°09' E 002°30'4 7.4
2018-May-15 11:30N 39°08' E 002°34'4 7.5
2018-May-15 11:00N 39°07' E 002°39'4 7.6
2018-May-15 10:29N 39°05' E 002°44'4 7.7
2018-May-15 09:55N 39°03' E 002°49'4 7.7
2018-May-15 09:22N 39°02' E 002°54'6 7.7
2018-May-15 08:36N 38°60' E 003°01'1 7.8
2018-May-15 08:30N 38°60' E 003°02'45210.9
2018-May-13 14:54N 37°24' E 012°24'512.0
2018-May-13 14:30N 37°21' E 012°29'1212.7
2018-May-13 13:35N 37°16' E 012°43'112.7
2018-May-13 13:29N 37°16' E 012°44'612.5
2018-May-13 12:59N 37°13' E 012°51'7712.2
2018-May-13 06:41N 36°43' E 014°19'211.8
2018-May-13 06:30N 36°43' E 014°22'611.6
2018-May-13 06:00N 36°41' E 014°29'611.2
2018-May-13 05:25N 36°39' E 014°37'511.0
2018-May-13 04:59N 36°37' E 014°42'611.7
2018-May-13 04:30N 36°36' E 014°49'612.2
2018-May-13 03:59N 36°34' E 014°57'612.4
2018-May-13 03:29N 36°32' E 015°04'612.1
2018-May-13 03:00N 36°32' E 015°11'612.1
2018-May-13 02:30N 36°32' E 015°19'612.0
2018-May-13 02:00N 36°32' E 015°26'612.2
2018-May-13 01:30N 36°31' E 015°34'612.2
2018-May-13 01:00N 36°31' E 015°42'612.2
2018-May-13 00:29N 36°31' E 015°49'  

Dump ship's entire track history